Arvada, CO (80005)

9:11 AM MST on November 26, 2014 (GMT -0700)
The Hills At Standley Lake | Change Station
CLOSE
Current Station
Personal Weather Station
Location: Arvada, CO
Elevation: 5659 ft
Nearby Weather Stations

Elev 5659 ft 39.85 °N, 105.14 °W | Updated 9 minutes ago

Overcast
Overcast
31.1 °F
Feels Like 25 °F
N
5.8
Wind Variable Wind from West

Today
High -- | Low -- °F
--% Chance of Precip.
Yesterday
High -- | Low -- °F
Precip. -- in
6:57 AM 4:37 PM
Waxing Crescent, 20% visible
Pressure 30.18 in
Visibility 20.0 miles
Clouds Scattered Clouds 1900 ft
Mostly Cloudy 18000 ft
Windchill 25 °F
Dew Point 25 °F
Humidity 77%
Rainfall 0.00 in
Snow Depth Not available.
UV 1 out of 12
Pollen .10 out of 12
Air Quality Not available.
Flu Activity Not available.
METAR KBJC 261555Z 09010KT 20SM SCT019 BKN180 M01/M05 A3018

More Conditions Fewer Conditions

Pressure 30.18 in
Visibility 20.0 miles
Clouds Scattered Clouds 1900 ft
Mostly Cloudy 18000 ft
Windchill 25 °F
Dew Point 25 °F
Humidity 77%
Rainfall 0.00 in
Snow Depth Not available.
UV 1 out of 12
Pollen .10 out of 12
Air Quality Not available.
Flu Activity Not available.
METAR KBJC 261555Z 09010KT 20SM SCT019 BKN180 M01/M05 A3018

More Conditions Fewer Conditions

10-Day Weather Forecast

Almanac

Astronomy

Nov. 26, 2014 Rise Set
Actual Time
Civil Twilight
Nautical Twilight
Astronomical Twilight
Moon
Length of Visible Light
Length of Day
Tomorrow will be .
, % of the Moon is Illuminated

Today's Extremes

State Highs State Lows

Community

WunderPhotos

Upload Photos

1,773,780 photos uploaded!

WunderBlogs® & News

Nearby

Air Quality

  Air Quality AQ Index Pollutant
Not available.

Snow Depth

Station Depth Elevation

Earthquake Activity

City Distance Mag. Time & Date
Minimum magnitude displayed is 2.5.

Coastal Water Temperatures

Place Temperature

Nearby Weather Stations